Winchester, Idaho
Current Conditions -  °F | °C
As of 8:56 PM on Saturday 25 Oct 2014 (Local Time) from KLWS Reporting Station
Few Clouds Few Clouds  
Wind Chill: 62°   Ceiling: Unl
Heat Index: 62°   Visibility: 10mi
Dew Point: 43°   Wind: 28mph
Humidity: 50%   Direction: 210°SSW
Pressure: 29.61"   Gusts: 48mph
Location:  46.24°N, 116.62°W
Report Text: KLWS 260356Z 21024G42KT 10SM FEW110 17/06 A2961 RMK AO2 PK WND 24046/0314 RAB16E36 PRESRR SLP026 P0001 T01670061
Loading
Personal Weather Stations






























Interactive Weather Map
Tropical Storm Tracking
New forecast layout! Learn more

10-Day Weather Forecast

Advertisements
Track Severe Weather on mobile